sensor_id;sensor_type;location;lat;lon;timestamp;pressure;altitude;pressure_sealevel;temperature;humidity
71043;BME280;58696;52.134;5.500;2023-05-10T00:01:45;100985.19;;;12.35;100.00
71043;BME280;58696;52.134;5.500;2023-05-10T00:04:14;100977.22;;;12.30;100.00
71043;BME280;58696;52.134;5.500;2023-05-10T00:06:40;100966.94;;;12.30;100.00
71043;BME280;58696;52.134;5.500;2023-05-10T00:09:09;100976.44;;;12.29;100.00
71043;BME280;58696;52.134;5.500;2023-05-10T00:11:36;100970.09;;;12.32;100.00
71043;BME280;58696;52.134;5.500;2023-05-10T00:14:07;100967.31;;;12.33;100.00
71043;BME280;58696;52.134;5.500;2023-05-10T00:16:36;100967.94;;;12.35;100.00
71043;BME280;58696;52.134;5.500;2023-05-10T00:19:03;100960.59;;;12.32;100.00
71043;BME280;58696;52.134;5.500;2023-05-10T00:21:29;100966.53;;;12.33;100.00
71043;BME280;58696;52.134;5.500;2023-05-10T00:24:01;100965.38;;;12.35;100.00
71043;BME280;58696;52.134;5.500;2023-05-10T00:26:32;100965.97;;;12.37;100.00
71043;BME280;58696;52.134;5.500;2023-05-10T00:28:59;100966.75;;;12.38;100.00
71043;BME280;58696;52.134;5.500;2023-05-10T00:31:30;100969.34;;;12.38;100.00
71043;BME280;58696;52.134;5.500;2023-05-10T00:33:59;100960.22;;;12.35;100.00
71043;BME280;58696;52.134;5.500;2023-05-10T00:36:28;100949.47;;;12.32;100.00
71043;BME280;58696;52.134;5.500;2023-05-10T00:38:55;100963.16;;;12.32;100.00
71043;BME280;58696;52.134;5.500;2023-05-10T00:41:23;100962.78;;;12.35;100.00
71043;BME280;58696;52.134;5.500;2023-05-10T00:43:55;100957.63;;;12.35;100.00
71043;BME280;58696;52.134;5.500;2023-05-10T00:46:21;100961.59;;;12.38;100.00
71043;BME280;58696;52.134;5.500;2023-05-10T00:48:49;100964.97;;;12.38;100.00
71043;BME280;58696;52.134;5.500;2023-05-10T00:51:16;100960.44;;;12.41;100.00
71043;BME280;58696;52.134;5.500;2023-05-10T00:53:44;100958.84;;;12.40;100.00
71043;BME280;58696;52.134;5.500;2023-05-10T00:56:12;100961.44;;;12.40;100.00
71043;BME280;58696;52.134;5.500;2023-05-10T00:58:42;100961.44;;;12.40;100.00
71043;BME280;58696;52.134;5.500;2023-05-10T01:01:09;100957.66;;;12.42;100.00
71043;BME280;58696;52.134;5.500;2023-05-10T01:03:39;100961.84;;;12.43;100.00
71043;BME280;58696;52.134;5.500;2023-05-10T01:06:06;100961.84;;;12.43;100.00
71043;BME280;58696;52.134;5.500;2023-05-10T01:08:36;100966.97;;;12.43;100.00
71043;BME280;58696;52.134;5.500;2023-05-10T01:11:05;100962.63;;;12.44;100.00
71043;BME280;58696;52.134;5.500;2023-05-10T01:13:37;100968.41;;;12.46;100.00
71043;BME280;58696;52.134;5.500;2023-05-10T01:16:04;100967.41;;;12.47;100.00
71043;BME280;58696;52.134;5.500;2023-05-10T01:18:37;100967.59;;;12.45;100.00
71043;BME280;58696;52.134;5.500;2023-05-10T01:27:30;100964.44;;;12.50;100.00
71043;BME280;58696;52.134;5.500;2023-05-10T01:43:28;100959.69;;;12.53;100.00
71043;BME280;58696;52.134;5.500;2023-05-10T01:46:05;100965.84;;;12.52;100.00
71043;BME280;58696;52.134;5.500;2023-05-10T01:48:41;100973.16;;;12.49;100.00
71043;BME280;58696;52.134;5.500;2023-05-10T01:51:20;100967.00;;;12.50;100.00
71043;BME280;58696;52.134;5.500;2023-05-10T01:53:48;100964.63;;;12.48;100.00
71043;BME280;58696;52.134;5.500;2023-05-10T01:56:16;100968.78;;;12.49;100.00
71043;BME280;58696;52.134;5.500;2023-05-10T01:58:52;100973.94;;;12.49;100.00
71043;BME280;58696;52.134;5.500;2023-05-10T02:01:23;100974.75;;;12.50;100.00
71043;BME280;58696;52.134;5.500;2023-05-10T02:03:51;100973.94;;;12.49;100.00
71043;BME280;58696;52.134;5.500;2023-05-10T02:06:20;100970.59;;;12.49;100.00
71043;BME280;58696;52.134;5.500;2023-05-10T02:08:52;100971.38;;;12.49;100.00
71043;BME280;58696;52.134;5.500;2023-05-10T02:11:24;100974.75;;;12.50;100.00
71043;BME280;58696;52.134;5.500;2023-05-10T02:13:53;100977.94;;;12.52;100.00
71043;BME280;58696;52.134;5.500;2023-05-10T02:16:24;100976.34;;;12.51;100.00
71043;BME280;58696;52.134;5.500;2023-05-10T02:18:53;100980.53;;;12.52;100.00
71043;BME280;58696;52.134;5.500;2023-05-10T02:21:21;100978.13;;;12.50;100.00
71043;BME280;58696;52.134;5.500;2023-05-10T02:23:54;100979.09;;;12.49;100.00
71043;BME280;58696;52.134;5.500;2023-05-10T02:26:25;100975.16;;;12.47;100.00
71043;BME280;58696;52.134;5.500;2023-05-10T02:28:55;100979.50;;;12.46;100.00
71043;BME280;58696;52.134;5.500;2023-05-10T02:31:25;100979.50;;;12.46;100.00
71043;BME280;58696;52.134;5.500;2023-05-10T02:33:55;100983.88;;;12.46;100.00
71043;BME280;58696;52.134;5.500;2023-05-10T02:36:23;100983.88;;;12.46;100.00
71043;BME280;58696;52.134;5.500;2023-05-10T02:38:51;100989.97;;;12.45;100.00
71043;BME280;58696;52.134;5.500;2023-05-10T02:41:19;100988.03;;;12.47;100.00
71043;BME280;58696;52.134;5.500;2023-05-10T02:43:51;100994.19;;;12.46;100.00
71043;BME280;58696;52.134;5.500;2023-05-10T02:46:21;100997.91;;;12.43;100.00
71043;BME280;58696;52.134;5.500;2023-05-10T02:48:47;100997.31;;;12.41;100.00
71043;BME280;58696;52.134;5.500;2023-05-10T02:51:16;101002.69;;;12.40;100.00
71043;BME280;58696;52.134;5.500;2023-05-10T02:53:46;100996.91;;;12.37;100.00
71043;BME280;58696;52.134;5.500;2023-05-10T02:56:29;100989.34;;;12.36;100.00
71043;BME280;58696;52.134;5.500;2023-05-10T02:59:00;100994.72;;;12.34;100.00
71043;BME280;58696;52.134;5.500;2023-05-10T03:01:27;100995.66;;;12.33;100.00
71043;BME280;58696;52.134;5.500;2023-05-10T03:03:56;100998.09;;;12.35;100.00
71043;BME280;58696;52.134;5.500;2023-05-10T03:06:25;100998.44;;;12.32;100.00
71043;BME280;58696;52.134;5.500;2023-05-10T03:08:52;101007.38;;;12.29;100.00
71043;BME280;58696;52.134;5.500;2023-05-10T03:14:16;101004.78;;;12.29;100.00
71043;BME280;58696;52.134;5.500;2023-05-10T03:16:54;101008.72;;;12.25;100.00
71043;BME280;58696;52.134;5.500;2023-05-10T03:19:45;101003.34;;;12.20;100.00
71043;BME280;58696;52.134;5.500;2023-05-10T03:22:23;101010.81;;;12.15;100.00
71043;BME280;58696;52.134;5.500;2023-05-10T03:24:55;101010.41;;;12.11;100.00
71043;BME280;58696;52.134;5.500;2023-05-10T03:27:27;101008.41;;;12.07;100.00
71043;BME280;58696;52.134;5.500;2023-05-10T03:29:57;101017.47;;;12.03;100.00
71043;BME280;58696;52.134;5.500;2023-05-10T03:32:28;101020.41;;;12.00;100.00
71043;BME280;58696;52.134;5.500;2023-05-10T03:34:55;101023.19;;;11.98;100.00
71043;BME280;58696;52.134;5.500;2023-05-10T03:37:22;101019.19;;;11.96;100.00
71043;BME280;58696;52.134;5.500;2023-05-10T03:39:51;101028.53;;;11.97;100.00
71043;BME280;58696;52.134;5.500;2023-05-10T03:42:17;101021.75;;;11.96;100.00
71043;BME280;58696;52.134;5.500;2023-05-10T03:44:44;101016.22;;;11.92;100.00
71043;BME280;58696;52.134;5.500;2023-05-10T03:47:15;101020.38;;;11.93;100.00
71043;BME280;58696;52.134;5.500;2023-05-10T03:49:41;101021.34;;;11.92;100.00
71043;BME280;58696;52.134;5.500;2023-05-10T03:52:10;101024.13;;;11.91;100.00
71043;BME280;58696;52.134;5.500;2023-05-10T03:54:37;101015.56;;;11.90;100.00
71043;BME280;58696;52.134;5.500;2023-05-10T03:57:04;101015.56;;;11.90;100.00
71043;BME280;58696;52.134;5.500;2023-05-10T03:59:30;101019.16;;;11.89;100.00
71043;BME280;58696;52.134;5.500;2023-05-10T04:01:59;101017.56;;;11.88;100.00
71043;BME280;58696;52.134;5.500;2023-05-10T04:04:29;101024.50;;;11.88;100.00
71043;BME280;58696;52.134;5.500;2023-05-10T04:06:55;101020.13;;;11.88;100.00
71043;BME280;58696;52.134;5.500;2023-05-10T04:09:22;101021.34;;;11.92;100.00
71043;BME280;58696;52.134;5.500;2023-05-10T04:11:48;101023.75;;;11.94;100.00
71043;BME280;58696;52.134;5.500;2023-05-10T04:14:17;101020.56;;;11.92;100.00
71043;BME280;58696;52.134;5.500;2023-05-10T04:16:44;101031.66;;;11.92;100.00
71043;BME280;58696;52.134;5.500;2023-05-10T04:19:15;101025.53;;;11.93;100.00
71043;BME280;58696;52.134;5.500;2023-05-10T04:21:44;101034.84;;;11.94;100.00
71043;BME280;58696;52.134;5.500;2023-05-10T04:24:10;101031.47;;;11.94;100.00
71043;BME280;58696;52.134;5.500;2023-05-10T04:26:38;101033.84;;;11.95;100.00
71043;BME280;58696;52.134;5.500;2023-05-10T04:29:05;101035.28;;;11.98;100.00
71043;BME280;58696;52.134;5.500;2023-05-10T04:31:34;101026.56;;;11.99;100.00
71043;BME280;58696;52.134;5.500;2023-05-10T04:34:02;101029.72;;;12.01;100.00
71043;BME280;58696;52.134;5.500;2023-05-10T04:36:33;101029.56;;;12.02;100.00
71043;BME280;58696;52.134;5.500;2023-05-10T04:39:04;101032.16;;;12.02;100.00
71043;BME280;58696;52.134;5.500;2023-05-10T04:41:31;101031.34;;;12.02;100.00
71043;BME280;58696;52.134;5.500;2023-05-10T04:43:59;101036.31;;;12.03;100.00
71043;BME280;58696;52.134;5.500;2023-05-10T04:46:26;101038.69;;;12.05;100.00
71043;BME280;58696;52.134;5.500;2023-05-10T04:48:55;101041.25;;;12.05;100.00
71043;BME280;58696;52.134;5.500;2023-05-10T04:51:21;101048.19;;;12.04;100.00
71043;BME280;58696;52.134;5.500;2023-05-10T04:53:50;101047.41;;;12.04;100.00
71043;BME280;58696;52.134;5.500;2023-05-10T04:56:31;101046.22;;;12.06;100.00
71043;BME280;58696;52.134;5.500;2023-05-10T04:59:00;101053.78;;;12.08;100.00
71043;BME280;58696;52.134;5.500;2023-05-10T05:01:31;101049.22;;;12.10;100.00
71043;BME280;58696;52.134;5.500;2023-05-10T05:03:58;101057.56;;;12.12;100.00
71043;BME280;58696;52.134;5.500;2023-05-10T05:06:25;101060.78;;;12.14;100.00
71043;BME280;58696;52.134;5.500;2023-05-10T05:08:53;101058.00;;;12.16;100.00
71043;BME280;58696;52.134;5.500;2023-05-10T05:11:24;101062.16;;;12.17;100.00
71043;BME280;58696;52.134;5.500;2023-05-10T05:13:53;101058.59;;;12.18;100.00
71043;BME280;58696;52.134;5.500;2023-05-10T05:16:20;101063.59;;;12.19;100.00
71043;BME280;58696;52.134;5.500;2023-05-10T05:18:48;101064.19;;;12.21;100.00
71043;BME280;58696;52.134;5.500;2023-05-10T05:21:18;101059.81;;;12.22;100.00
71043;BME280;58696;52.134;5.500;2023-05-10T05:23:48;101069.78;;;12.25;100.00
71043;BME280;58696;52.134;5.500;2023-05-10T05:26:14;101073.75;;;12.27;100.00
71043;BME280;58696;52.134;5.500;2023-05-10T05:28:43;101071.16;;;12.27;100.00
71043;BME280;58696;52.134;5.500;2023-05-10T05:31:10;101079.09;;;12.26;100.00
71043;BME280;58696;52.134;5.500;2023-05-10T05:33:40;101078.09;;;12.27;100.00
71043;BME280;58696;52.134;5.500;2023-05-10T05:36:06;101074.72;;;12.26;100.00
71043;BME280;58696;52.134;5.500;2023-05-10T05:38:35;101084.44;;;12.24;100.00
71043;BME280;58696;52.134;5.500;2023-05-10T05:41:02;101079.09;;;12.26;100.00
71043;BME280;58696;52.134;5.500;2023-05-10T05:43:31;101076.94;;;12.29;100.00
71043;BME280;58696;52.134;5.500;2023-05-10T05:45:57;101082.91;;;12.30;100.00
71043;BME280;58696;52.134;5.500;2023-05-10T05:48:30;101075.97;;;12.30;100.00
71043;BME280;58696;52.134;5.500;2023-05-10T05:50:56;101078.72;;;12.29;100.00
71043;BME280;58696;52.134;5.500;2023-05-10T05:53:24;101082.69;;;12.31;100.00
71043;BME280;58696;52.134;5.500;2023-05-10T05:58:22;101092.41;;;12.29;100.00
71043;BME280;58696;52.134;5.500;2023-05-10T06:00:50;101088.66;;;12.32;100.00
71043;BME280;58696;52.134;5.500;2023-05-10T06:03:17;101093.59;;;12.33;100.00
71043;BME280;58696;52.134;5.500;2023-05-10T06:05:46;101098.34;;;12.30;100.00
71043;BME280;58696;52.134;5.500;2023-05-10T06:08:13;101097.13;;;12.26;100.00
71043;BME280;58696;52.134;5.500;2023-05-10T06:10:40;101100.06;;;12.23;100.00
71043;BME280;58696;52.134;5.500;2023-05-10T06:13:06;101107.78;;;12.23;100.00
71043;BME280;58696;52.134;5.500;2023-05-10T06:15:35;101104.41;;;12.22;100.00
71043;BME280;58696;52.134;5.500;2023-05-10T06:18:02;101116.72;;;12.20;100.00
71043;BME280;58696;52.134;5.500;2023-05-10T06:20:28;101111.75;;;12.19;100.00
71043;BME280;58696;52.134;5.500;2023-05-10T06:22:57;101117.84;;;12.18;100.00
71043;BME280;58696;52.134;5.500;2023-05-10T06:25:26;101116.09;;;12.18;100.00
71043;BME280;58696;52.134;5.500;2023-05-10T06:27:52;101111.56;;;12.20;100.00
71043;BME280;58696;52.134;5.500;2023-05-10T06:30:26;101120.69;;;12.23;100.00
71043;BME280;58696;52.134;5.500;2023-05-10T06:32:55;101117.94;;;12.24;100.00
71043;BME280;58696;52.134;5.500;2023-05-10T06:35:22;101114.69;;;12.16;100.00
71043;BME280;58696;52.134;5.500;2023-05-10T06:37:49;101113.63;;;12.10;100.00
71043;BME280;58696;52.134;5.500;2023-05-10T06:40:18;101121.06;;;12.20;100.00
71043;BME280;58696;52.134;5.500;2023-05-10T06:42:46;101119.34;;;12.27;100.00
71043;BME280;58696;52.134;5.500;2023-05-10T06:45:14;101118.19;;;12.29;100.00
71043;BME280;58696;52.134;5.500;2023-05-10T06:47:41;101131.41;;;12.26;100.00
71043;BME280;58696;52.134;5.500;2023-05-10T06:50:13;101134.97;;;12.25;100.00
71043;BME280;58696;52.134;5.500;2023-05-10T06:52:39;101125.91;;;12.29;100.00
71043;BME280;58696;52.134;5.500;2023-05-10T06:55:11;101129.09;;;12.31;100.00
71043;BME280;58696;52.134;5.500;2023-05-10T06:57:38;101134.44;;;12.30;100.00
71043;BME280;58696;52.134;5.500;2023-05-10T07:00:07;101133.88;;;12.34;100.00
71043;BME280;58696;52.134;5.500;2023-05-10T07:02:35;101139.03;;;12.34;100.00
71043;BME280;58696;52.134;5.500;2023-05-10T07:05:02;101138.28;;;12.41;100.00
71043;BME280;58696;52.134;5.500;2023-05-10T07:07:29;101145.28;;;12.47;100.00
71043;BME280;58696;52.134;5.500;2023-05-10T07:10:00;101146.91;;;12.54;100.00
71043;BME280;58696;52.134;5.500;2023-05-10T07:12:27;101147.53;;;12.56;100.00
71043;BME280;58696;52.134;5.500;2023-05-10T07:14:53;101158.69;;;12.63;100.00
71043;BME280;58696;52.134;5.500;2023-05-10T07:17:20;101158.25;;;12.60;100.00
71043;BME280;58696;52.134;5.500;2023-05-10T07:19:47;101154.09;;;12.59;100.00
71043;BME280;58696;52.134;5.500;2023-05-10T07:22:16;101153.72;;;12.62;100.00
71043;BME280;58696;52.134;5.500;2023-05-10T07:24:45;101157.88;;;12.63;100.00
71043;BME280;58696;52.134;5.500;2023-05-10T07:27:12;101161.22;;;12.57;99.84
71043;BME280;58696;52.134;5.500;2023-05-10T07:29:39;101160.44;;;12.56;99.55
71043;BME280;58696;52.134;5.500;2023-05-10T07:32:08;101166.97;;;12.59;99.33
71043;BME280;58696;52.134;5.500;2023-05-10T07:34:35;101165.81;;;12.61;99.29
71043;BME280;58696;52.134;5.500;2023-05-10T07:37:01;101178.13;;;12.66;99.29
71043;BME280;58696;52.134;5.500;2023-05-10T07:39:30;101176.19;;;12.68;99.23
71043;BME280;58696;52.134;5.500;2023-05-10T07:42:02;101176.19;;;12.68;99.00
71043;BME280;58696;52.134;5.500;2023-05-10T07:44:31;101172.94;;;12.59;98.81
71043;BME280;58696;52.134;5.500;2023-05-10T07:46:58;101179.44;;;12.55;98.69
71043;BME280;58696;52.134;5.500;2023-05-10T07:49:26;101182.16;;;12.47;98.65
71043;BME280;58696;52.134;5.500;2023-05-10T07:51:53;101183.50;;;12.43;98.54
71043;BME280;58696;52.134;5.500;2023-05-10T07:54:20;101185.28;;;12.43;98.47
71043;BME280;58696;52.134;5.500;2023-05-10T07:56:51;101189.16;;;12.53;98.77
71043;BME280;58696;52.134;5.500;2023-05-10T07:59:17;101199.16;;;12.63;98.61
71043;BME280;58696;52.134;5.500;2023-05-10T08:01:44;101193.03;;;12.71;98.51
71043;BME280;58696;52.134;5.500;2023-05-10T08:04:11;101198.13;;;12.85;98.74
71043;BME280;58696;52.134;5.500;2023-05-10T08:06:39;101202.09;;;12.88;98.08
71043;BME280;58696;52.134;5.500;2023-05-10T08:09:08;101206.53;;;12.94;97.93
71043;BME280;58696;52.134;5.500;2023-05-10T08:11:37;101209.94;;;13.01;98.07
71043;BME280;58696;52.134;5.500;2023-05-10T08:14:06;101214.16;;;13.09;98.09
71043;BME280;58696;52.134;5.500;2023-05-10T08:16:32;101213.38;;;13.15;97.69
71043;BME280;58696;52.134;5.500;2023-05-10T08:19:01;101212.81;;;13.20;97.47
71043;BME280;58696;52.134;5.500;2023-05-10T08:21:28;101206.34;;;13.24;97.26
71043;BME280;58696;52.134;5.500;2023-05-10T08:23:55;101203.75;;;13.24;96.23
71043;BME280;58696;52.134;5.500;2023-05-10T08:26:24;101200.59;;;13.28;95.98
71043;BME280;58696;52.134;5.500;2023-05-10T08:28:53;101205.97;;;13.27;95.81
71043;BME280;58696;52.134;5.500;2023-05-10T08:31:19;101209.34;;;13.27;95.14
71043;BME280;58696;52.134;5.500;2023-05-10T08:33:48;101216.47;;;13.25;94.78
71043;BME280;58696;52.134;5.500;2023-05-10T08:36:18;101220.63;;;13.26;94.84
71043;BME280;58696;52.134;5.500;2023-05-10T08:38:50;101227.41;;;13.27;95.10
71043;BME280;58696;52.134;5.500;2023-05-10T08:41:22;101226.78;;;13.25;94.74
71043;BME280;58696;52.134;5.500;2023-05-10T08:43:51;101230.50;;;13.16;94.20
71043;BME280;58696;52.134;5.500;2023-05-10T08:46:20;101231.19;;;13.03;94.93
71043;BME280;58696;52.134;5.500;2023-05-10T08:48:50;101233.91;;;12.95;94.99
71043;BME280;58696;52.134;5.500;2023-05-10T08:51:25;101241.66;;;12.95;95.35
71043;BME280;58696;52.134;5.500;2023-05-10T08:53:54;101236.66;;;12.94;95.18
71043;BME280;58696;52.134;5.500;2023-05-10T08:56:23;101240.97;;;12.86;95.23
71043;BME280;58696;52.134;5.500;2023-05-10T08:58:50;101243.00;;;12.91;95.49
71043;BME280;58696;52.134;5.500;2023-05-10T09:01:20;101246.81;;;12.95;95.81
71043;BME280;58696;52.134;5.500;2023-05-10T09:03:48;101243.91;;;13.05;96.05
71043;BME280;58696;52.134;5.500;2023-05-10T09:06:17;101250.59;;;12.99;95.39
71043;BME280;58696;52.134;5.500;2023-05-10T09:08:44;101254.72;;;12.94;94.98
71043;BME280;58696;52.134;5.500;2023-05-10T09:11:14;101252.72;;;12.89;95.12
71043;BME280;58696;52.134;5.500;2023-05-10T09:13:44;101243.00;;;12.91;95.25
71043;BME280;58696;52.134;5.500;2023-05-10T09:16:10;101246.84;;;13.02;94.31
71043;BME280;58696;52.134;5.500;2023-05-10T09:18:47;101255.19;;;13.25;94.47
71043;BME280;58696;52.134;5.500;2023-05-10T09:21:15;101253.56;;;13.59;94.27
71043;BME280;58696;52.134;5.500;2023-05-10T09:23:45;101254.91;;;13.89;92.66
71043;BME280;58696;52.134;5.500;2023-05-10T09:26:14;101271.31;;;14.16;92.08
71043;BME280;58696;52.134;5.500;2023-05-10T09:28:57;101257.81;;;14.34;90.72
71043;BME280;58696;52.134;5.500;2023-05-10T09:31:25;101257.78;;;14.14;89.48
71043;BME280;58696;52.134;5.500;2023-05-10T09:34:11;101278.03;;;14.04;90.34
71043;BME280;58696;52.134;5.500;2023-05-10T09:36:50;101269.25;;;13.99;89.95
71043;BME280;58696;52.134;5.500;2023-05-10T09:39:17;101274.09;;;14.21;90.91
71043;BME280;58696;52.134;5.500;2023-05-10T09:41:44;101280.97;;;14.56;90.54
71043;BME280;58696;52.134;5.500;2023-05-10T09:44:16;101278.38;;;14.89;89.61
71043;BME280;58696;52.134;5.500;2023-05-10T09:46:49;101279.59;;;14.99;86.09
71043;BME280;58696;52.134;5.500;2023-05-10T09:49:20;101283.78;;;15.14;86.48
71043;BME280;58696;52.134;5.500;2023-05-10T09:51:47;101287.31;;;15.39;85.02
71043;BME280;58696;52.134;5.500;2023-05-10T09:54:17;101283.09;;;15.58;85.05
71043;BME280;58696;52.134;5.500;2023-05-10T09:56:47;101283.44;;;15.75;84.91
71043;BME280;58696;52.134;5.500;2023-05-10T09:59:16;101292.03;;;15.75;80.25
71043;BME280;58696;52.134;5.500;2023-05-10T10:01:49;101293.47;;;15.51;82.71
71043;BME280;58696;52.134;5.500;2023-05-10T10:04:16;101290.03;;;15.71;81.62
71043;BME280;58696;52.134;5.500;2023-05-10T10:06:43;101293.84;;;15.62;81.77
71043;BME280;58696;52.134;5.500;2023-05-10T10:09:10;101293.06;;;15.48;82.16
71043;BME280;58696;52.134;5.500;2023-05-10T10:11:39;101294.91;;;15.21;81.75
71043;BME280;58696;52.134;5.500;2023-05-10T10:14:09;101298.31;;;15.02;82.85
71043;BME280;58696;52.134;5.500;2023-05-10T10:16:37;101300.50;;;14.85;82.12
71043;BME280;58696;52.134;5.500;2023-05-10T10:19:25;101303.69;;;14.80;86.10
71043;BME280;58696;52.134;5.500;2023-05-10T10:21:55;101301.91;;;14.81;86.35
71043;BME280;58696;52.134;5.500;2023-05-10T10:24:22;101303.47;;;14.82;86.56
71043;BME280;58696;52.134;5.500;2023-05-10T10:26:49;101299.31;;;14.81;84.88
71043;BME280;58696;52.134;5.500;2023-05-10T10:34:54;101305.66;;;14.78;84.61
71043;BME280;58696;52.134;5.500;2023-05-10T10:37:21;101308.06;;;14.86;85.57
71043;BME280;58696;52.134;5.500;2023-05-10T10:39:48;101310.84;;;14.85;84.70
71043;BME280;58696;52.134;5.500;2023-05-10T10:42:44;101314.84;;;14.74;84.83
71043;BME280;58696;52.134;5.500;2023-05-10T10:45:12;101307.06;;;14.74;84.70
71043;BME280;58696;52.134;5.500;2023-05-10T10:47:40;101317.41;;;14.87;86.06
71043;BME280;58696;52.134;5.500;2023-05-10T10:50:07;101308.06;;;14.99;85.53
71043;BME280;58696;52.134;5.500;2023-05-10T10:52:45;101315.44;;;15.09;86.54
71043;BME280;58696;52.134;5.500;2023-05-10T10:55:17;101317.03;;;15.17;86.41
71043;BME280;58696;52.134;5.500;2023-05-10T10:57:56;101314.63;;;15.09;86.70
71043;BME280;58696;52.134;5.500;2023-05-10T11:00:31;101305.88;;;15.10;86.52
71043;BME280;58696;52.134;5.500;2023-05-10T11:03:14;101310.25;;;15.03;86.23
71043;BME280;58696;52.134;5.500;2023-05-10T11:05:49;101308.69;;;15.02;87.41
71043;BME280;58696;52.134;5.500;2023-05-10T11:08:31;101316.22;;;15.10;86.55
71043;BME280;58696;52.134;5.500;2023-05-10T11:13:44;101313.03;;;15.34;85.59
71043;BME280;58696;52.134;5.500;2023-05-10T11:16:24;101320.59;;;15.29;83.52
71043;BME280;58696;52.134;5.500;2023-05-10T11:18:59;101319.78;;;15.42;83.96
71043;BME280;58696;52.134;5.500;2023-05-10T11:21:31;101323.94;;;15.56;83.78
71043;BME280;58696;52.134;5.500;2023-05-10T11:24:01;101317.75;;;15.57;83.46
71043;BME280;58696;52.134;5.500;2023-05-10T11:26:34;101320.38;;;15.64;84.68
71043;BME280;58696;52.134;5.500;2023-05-10T11:29:01;101324.13;;;15.74;82.95
71043;BME280;58696;52.134;5.500;2023-05-10T11:31:31;101322.56;;;15.67;82.59
71043;BME280;58696;52.134;5.500;2023-05-10T11:34:01;101322.16;;;15.63;81.70
71043;BME280;58696;52.134;5.500;2023-05-10T11:36:34;101326.34;;;15.58;82.49
71043;BME280;58696;52.134;5.500;2023-05-10T11:39:05;101329.94;;;15.50;84.34
71043;BME280;58696;52.134;5.500;2023-05-10T11:41:32;101331.56;;;15.31;82.58
71043;BME280;58696;52.134;5.500;2023-05-10T11:44:01;101331.56;;;15.18;83.32
71043;BME280;58696;52.134;5.500;2023-05-10T11:46:30;101317.41;;;15.34;84.63
71043;BME280;58696;52.134;5.500;2023-05-10T11:48:59;101324.13;;;15.55;84.59
71043;BME280;58696;52.134;5.500;2023-05-10T11:51:33;101320.97;;;15.72;84.98
71043;BME280;58696;52.134;5.500;2023-05-10T11:54:00;101324.69;;;15.90;83.15
71043;BME280;58696;52.134;5.500;2023-05-10T11:56:27;101327.22;;;16.03;82.80
71043;BME280;58696;52.134;5.500;2023-05-10T11:58:57;101333.88;;;16.30;82.29
71043;BME280;58696;52.134;5.500;2023-05-10T12:01:27;101329.16;;;16.52;77.23
71043;BME280;58696;52.134;5.500;2023-05-10T12:03:55;101328.34;;;16.59;79.75
71043;BME280;58696;52.134;5.500;2023-05-10T12:06:31;101330.25;;;16.76;79.26
71043;BME280;58696;52.134;5.500;2023-05-10T12:09:05;101328.81;;;16.80;78.08
71043;BME280;58696;52.134;5.500;2023-05-10T12:11:32;101330.38;;;17.13;79.13
71043;BME280;58696;52.134;5.500;2023-05-10T12:13:58;101324.91;;;16.96;76.75
71043;BME280;58696;52.134;5.500;2023-05-10T12:16:28;101329.88;;;16.73;78.50
71043;BME280;58696;52.134;5.500;2023-05-10T12:18:59;101333.00;;;16.81;78.89
71043;BME280;58696;52.134;5.500;2023-05-10T12:21:28;101335.16;;;16.85;78.71
71043;BME280;58696;52.134;5.500;2023-05-10T12:24:04;101332.69;;;16.65;78.04
71043;BME280;58696;52.134;5.500;2023-05-10T12:26:34;101329.63;;;16.43;79.48
71043;BME280;58696;52.134;5.500;2023-05-10T12:29:19;101335.47;;;16.63;79.95
71043;BME280;58696;52.134;5.500;2023-05-10T12:31:52;101327.72;;;16.95;79.86
71043;BME280;58696;52.134;5.500;2023-05-10T12:34:34;101328.72;;;17.19;81.30
71043;BME280;58696;52.134;5.500;2023-05-10T12:37:03;101333.56;;;17.33;78.38
71043;BME280;58696;52.134;5.500;2023-05-10T12:39:42;101335.34;;;17.15;75.84
71043;BME280;58696;52.134;5.500;2023-05-10T12:42:09;101331.34;;;17.12;77.44
71043;BME280;58696;52.134;5.500;2023-05-10T12:44:36;101329.13;;;17.16;77.25
71043;BME280;58696;52.134;5.500;2023-05-10T12:47:03;101329.28;;;17.21;74.36
71043;BME280;58696;52.134;5.500;2023-05-10T12:49:32;101331.41;;;17.30;74.49
71043;BME280;58696;52.134;5.500;2023-05-10T12:51:59;101332.38;;;17.54;73.40
71043;BME280;58696;52.134;5.500;2023-05-10T12:54:27;101331.63;;;17.91;73.27
71043;BME280;58696;52.134;5.500;2023-05-10T12:56:54;101337.56;;;18.09;71.32
71043;BME280;58696;52.134;5.500;2023-05-10T12:59:21;101345.53;;;17.96;72.87
71043;BME280;58696;52.134;5.500;2023-05-10T13:01:47;101340.78;;;17.93;73.02
71043;BME280;58696;52.134;5.500;2023-05-10T13:04:16;101341.78;;;17.92;73.12
71043;BME280;58696;52.134;5.500;2023-05-10T13:06:43;101344.44;;;17.67;72.74
71043;BME280;58696;52.134;5.500;2023-05-10T13:09:09;101342.84;;;17.66;73.45
71043;BME280;58696;52.134;5.500;2023-05-10T13:11:38;101346.94;;;17.80;72.72
71043;BME280;58696;52.134;5.500;2023-05-10T13:14:07;101341.38;;;17.95;73.03
71043;BME280;58696;52.134;5.500;2023-05-10T13:16:36;101355.44;;;17.87;71.94
71043;BME280;58696;52.134;5.500;2023-05-10T13:19:05;101345.28;;;17.61;72.71
71043;BME280;58696;52.134;5.500;2023-05-10T13:21:32;101348.25;;;17.46;74.42
71043;BME280;58696;52.134;5.500;2023-05-10T13:23:58;101352.13;;;17.37;75.03
71043;BME280;58696;52.134;5.500;2023-05-10T13:26:26;101358.75;;;17.33;75.41
71043;BME280;58696;52.134;5.500;2023-05-10T13:28:52;101361.00;;;17.04;74.35
71043;BME280;58696;52.134;5.500;2023-05-10T13:31:21;101370.59;;;16.72;76.36